sensor_id;sensor_type;location;lat;lon;timestamp;pressure;altitude;pressure_sealevel;temperature;humidity
46347;BME280;32057;47.830;19.046;2023-09-30T00:00:59;100752.19;;;11.82;100.00
46347;BME280;32057;47.830;19.046;2023-09-30T00:03:24;100739.13;;;11.82;100.00
46347;BME280;32057;47.830;19.046;2023-09-30T00:05:49;100750.59;;;11.88;100.00
46347;BME280;32057;47.830;19.046;2023-09-30T00:08:15;100751.34;;;11.83;100.00
46347;BME280;32057;47.830;19.046;2023-09-30T00:10:40;100748.16;;;11.94;100.00
46347;BME280;32057;47.830;19.046;2023-09-30T00:13:06;100746.47;;;11.98;100.00
46347;BME280;32057;47.830;19.046;2023-09-30T00:15:32;100745.22;;;11.81;100.00
46347;BME280;32057;47.830;19.046;2023-09-30T00:17:58;100745.91;;;11.73;100.00
46347;BME280;32057;47.830;19.046;2023-09-30T00:20:23;100742.34;;;11.68;100.00
46347;BME280;32057;47.830;19.046;2023-09-30T00:22:49;100742.47;;;11.74;100.00
46347;BME280;32057;47.830;19.046;2023-09-30T00:25:14;100741.91;;;11.50;100.00
46347;BME280;32057;47.830;19.046;2023-09-30T00:27:40;100733.69;;;11.33;100.00
46347;BME280;32057;47.830;19.046;2023-09-30T00:30:06;100737.94;;;11.29;100.00
46347;BME280;32057;47.830;19.046;2023-09-30T00:32:31;100734.38;;;11.26;100.00
46347;BME280;32057;47.830;19.046;2023-09-30T00:34:58;100735.50;;;11.35;100.00
46347;BME280;32057;47.830;19.046;2023-09-30T00:37:24;100727.25;;;11.17;100.00
46347;BME280;32057;47.830;19.046;2023-09-30T00:39:49;100735.94;;;11.18;100.00
46347;BME280;32057;47.830;19.046;2023-09-30T00:42:14;100729.81;;;11.15;100.00
46347;BME280;32057;47.830;19.046;2023-09-30T00:44:40;100734.19;;;11.18;100.00
46347;BME280;32057;47.830;19.046;2023-09-30T00:47:05;100722.81;;;11.13;100.00
46347;BME280;32057;47.830;19.046;2023-09-30T00:49:31;100722.75;;;11.11;100.00
46347;BME280;32057;47.830;19.046;2023-09-30T00:51:58;100724.50;;;11.11;100.00
46347;BME280;32057;47.830;19.046;2023-09-30T00:54:26;100721.66;;;11.02;100.00
46347;BME280;32057;47.830;19.046;2023-09-30T00:56:54;100723.56;;;11.09;100.00
46347;BME280;32057;47.830;19.046;2023-09-30T00:59:25;100723.78;;;11.18;100.00
46347;BME280;32057;47.830;19.046;2023-09-30T01:01:54;100709.25;;;11.26;100.00
46347;BME280;32057;47.830;19.046;2023-09-30T01:04:20;100714.31;;;11.22;100.00
46347;BME280;32057;47.830;19.046;2023-09-30T01:06:46;100713.59;;;11.27;100.00
46347;BME280;32057;47.830;19.046;2023-09-30T01:09:12;100721.31;;;11.24;100.00
46347;BME280;32057;47.830;19.046;2023-09-30T01:11:39;100724.09;;;11.32;100.00
46347;BME280;32057;47.830;19.046;2023-09-30T01:14:23;100721.53;;;11.33;100.00
46347;BME280;32057;47.830;19.046;2023-09-30T01:16:49;100719.47;;;11.20;100.00
46347;BME280;32057;47.830;19.046;2023-09-30T01:19:14;100713.19;;;11.10;100.00
46347;BME280;32057;47.830;19.046;2023-09-30T01:21:39;100716.38;;;10.99;100.00
46347;BME280;32057;47.830;19.046;2023-09-30T01:24:07;100713.72;;;10.97;100.00
46347;BME280;32057;47.830;19.046;2023-09-30T01:26:32;100719.91;;;11.01;100.00
46347;BME280;32057;47.830;19.046;2023-09-30T01:28:58;100715.00;;;11.13;100.00
46347;BME280;32057;47.830;19.046;2023-09-30T01:31:23;100714.31;;;11.22;100.00
46347;BME280;32057;47.830;19.046;2023-09-30T01:33:49;100715.19;;;11.22;100.00
46347;BME280;32057;47.830;19.046;2023-09-30T01:36:15;100703.91;;;11.22;100.00
46347;BME280;32057;47.830;19.046;2023-09-30T01:38:40;100705.16;;;11.01;100.00
46347;BME280;32057;47.830;19.046;2023-09-30T01:41:06;100704.25;;;10.99;100.00
46347;BME280;32057;47.830;19.046;2023-09-30T01:43:31;100706.41;;;10.82;100.00
46347;BME280;32057;47.830;19.046;2023-09-30T01:45:57;100706.94;;;10.69;100.00
46347;BME280;32057;47.830;19.046;2023-09-30T01:48:23;100711.41;;;10.73;100.00
46347;BME280;32057;47.830;19.046;2023-09-30T01:50:48;100709.09;;;10.85;100.00
46347;BME280;32057;47.830;19.046;2023-09-30T01:53:14;100713.59;;;10.91;100.00
46347;BME280;32057;47.830;19.046;2023-09-30T01:55:39;100713.84;;;11.02;100.00
46347;BME280;32057;47.830;19.046;2023-09-30T01:58:04;100707.94;;;11.09;100.00
46347;BME280;32057;47.830;19.046;2023-09-30T02:00:30;100709.69;;;11.08;100.00
46347;BME280;32057;47.830;19.046;2023-09-30T02:02:56;100706.66;;;10.91;100.00
46347;BME280;32057;47.830;19.046;2023-09-30T02:05:22;100709.25;;;10.58;100.00
46347;BME280;32057;47.830;19.046;2023-09-30T02:07:48;100699.91;;;10.65;100.00
46347;BME280;32057;47.830;19.046;2023-09-30T02:10:14;100697.31;;;10.66;100.00
46347;BME280;32057;47.830;19.046;2023-09-30T02:12:40;100700.28;;;10.80;100.00
46347;BME280;32057;47.830;19.046;2023-09-30T02:15:05;100692.50;;;10.82;100.00
46347;BME280;32057;47.830;19.046;2023-09-30T02:17:32;100696.22;;;10.91;100.00
46347;BME280;32057;47.830;19.046;2023-09-30T02:19:58;100705.72;;;10.89;100.00
46347;BME280;32057;47.830;19.046;2023-09-30T02:22:23;100702.41;;;10.95;100.00
46347;BME280;32057;47.830;19.046;2023-09-30T02:24:50;100695.59;;;11.02;100.00
46347;BME280;32057;47.830;19.046;2023-09-30T02:27:16;100702.59;;;11.03;100.00
46347;BME280;32057;47.830;19.046;2023-09-30T02:29:41;100703.78;;;10.82;100.00
46347;BME280;32057;47.830;19.046;2023-09-30T02:32:07;100705.19;;;10.68;100.00
46347;BME280;32057;47.830;19.046;2023-09-30T02:34:32;100708.78;;;10.73;100.00
46347;BME280;32057;47.830;19.046;2023-09-30T02:36:58;100704.63;;;10.80;100.00
46347;BME280;32057;47.830;19.046;2023-09-30T02:39:25;100703.13;;;10.89;100.00
46347;BME280;32057;47.830;19.046;2023-09-30T02:41:51;100696.19;;;10.88;100.00
46347;BME280;32057;47.830;19.046;2023-09-30T02:44:17;100696.84;;;10.81;100.00
46347;BME280;32057;47.830;19.046;2023-09-30T02:46:43;100701.69;;;10.67;100.00
46347;BME280;32057;47.830;19.046;2023-09-30T02:49:08;100701.50;;;10.60;100.00
46347;BME280;32057;47.830;19.046;2023-09-30T02:51:34;100695.97;;;10.47;100.00
46347;BME280;32057;47.830;19.046;2023-09-30T02:54:00;100703.81;;;10.49;100.00
46347;BME280;32057;47.830;19.046;2023-09-30T02:56:25;100700.72;;;10.64;100.00
46347;BME280;32057;47.830;19.046;2023-09-30T02:58:52;100699.91;;;10.65;100.00
46347;BME280;32057;47.830;19.046;2023-09-30T03:01:17;100704.94;;;10.59;100.00
46347;BME280;32057;47.830;19.046;2023-09-30T03:03:43;100699.75;;;10.59;100.00
46347;BME280;32057;47.830;19.046;2023-09-30T03:06:10;100702.34;;;10.59;100.00
46347;BME280;32057;47.830;19.046;2023-09-30T03:08:36;100707.56;;;10.59;100.00
46347;BME280;32057;47.830;19.046;2023-09-30T03:11:02;100705.38;;;10.75;100.00
46347;BME280;32057;47.830;19.046;2023-09-30T03:13:28;100704.50;;;10.75;100.00
46347;BME280;32057;47.830;19.046;2023-09-30T03:15:54;100710.53;;;10.74;100.00
46347;BME280;32057;47.830;19.046;2023-09-30T03:18:22;100709.50;;;10.67;100.00
46347;BME280;32057;47.830;19.046;2023-09-30T03:20:52;100715.69;;;10.71;100.00
46347;BME280;32057;47.830;19.046;2023-09-30T03:23:22;100716.66;;;10.74;100.00
46347;BME280;32057;47.830;19.046;2023-09-30T03:25:55;100718.06;;;10.63;100.00
46347;BME280;32057;47.830;19.046;2023-09-30T03:28:21;100715.44;;;10.62;100.00
46347;BME280;32057;47.830;19.046;2023-09-30T03:30:47;100717.25;;;10.66;100.00
46347;BME280;32057;47.830;19.046;2023-09-30T03:33:12;100718.88;;;10.61;100.00
46347;BME280;32057;47.830;19.046;2023-09-30T03:35:38;100718.91;;;10.62;100.00
46347;BME280;32057;47.830;19.046;2023-09-30T03:38:03;100712.50;;;10.49;100.00
46347;BME280;32057;47.830;19.046;2023-09-30T03:40:30;100712.66;;;10.55;100.00
46347;BME280;32057;47.830;19.046;2023-09-30T03:42:59;100715.25;;;10.55;100.00
46347;BME280;32057;47.830;19.046;2023-09-30T03:45:24;100722.09;;;10.52;100.00
46347;BME280;32057;47.830;19.046;2023-09-30T03:47:50;100727.53;;;10.60;100.00
46347;BME280;32057;47.830;19.046;2023-09-30T03:50:17;100724.09;;;10.61;100.00
46347;BME280;32057;47.830;19.046;2023-09-30T03:52:43;100714.63;;;10.64;100.00
46347;BME280;32057;47.830;19.046;2023-09-30T03:55:13;100717.44;;;10.72;100.00
46347;BME280;32057;47.830;19.046;2023-09-30T03:57:41;100716.31;;;10.62;100.00
46347;BME280;32057;47.830;19.046;2023-09-30T04:00:07;100717.63;;;10.46;100.00
46347;BME280;32057;47.830;19.046;2023-09-30T04:02:33;100718.31;;;10.39;100.00
46347;BME280;32057;47.830;19.046;2023-09-30T04:04:59;100715.59;;;10.34;100.00
46347;BME280;32057;47.830;19.046;2023-09-30T04:07:25;100716.16;;;10.26;100.00
46347;BME280;32057;47.830;19.046;2023-09-30T04:09:54;100716.31;;;10.30;100.00
46347;BME280;32057;47.830;19.046;2023-09-30T04:12:20;100716.00;;;10.20;100.00
46347;BME280;32057;47.830;19.046;2023-09-30T04:14:45;100709.13;;;10.22;100.00
46347;BME280;32057;47.830;19.046;2023-09-30T04:17:11;100710.72;;;10.16;100.00
46347;BME280;32057;47.830;19.046;2023-09-30T04:19:37;100708.78;;;10.09;100.00
46347;BME280;32057;47.830;19.046;2023-09-30T04:22:02;100714.72;;;10.05;100.00
46347;BME280;32057;47.830;19.046;2023-09-30T04:24:27;100716.66;;;10.12;100.00
46347;BME280;32057;47.830;19.046;2023-09-30T04:26:54;100714.91;;;10.11;100.00
46347;BME280;32057;47.830;19.046;2023-09-30T04:29:23;100716.16;;;10.26;100.00
46347;BME280;32057;47.830;19.046;2023-09-30T04:31:48;100704.84;;;10.24;100.00
46347;BME280;32057;47.830;19.046;2023-09-30T04:34:14;100705.59;;;10.20;100.00
46347;BME280;32057;47.830;19.046;2023-09-30T04:36:40;100712.56;;;10.21;100.00
46347;BME280;32057;47.830;19.046;2023-09-30T04:39:05;100711.75;;;10.23;100.00
46347;BME280;32057;47.830;19.046;2023-09-30T04:41:31;100715.94;;;10.16;100.00
46347;BME280;32057;47.830;19.046;2023-09-30T04:43:56;100708.13;;;10.16;100.00
46347;BME280;32057;47.830;19.046;2023-09-30T04:46:22;100717.09;;;10.28;100.00
46347;BME280;32057;47.830;19.046;2023-09-30T04:48:49;100723.25;;;10.30;100.00
46347;BME280;32057;47.830;19.046;2023-09-30T04:51:17;100726.09;;;10.39;100.00
46347;BME280;32057;47.830;19.046;2023-09-30T04:53:44;100720.16;;;10.43;100.00
46347;BME280;32057;47.830;19.046;2023-09-30T04:56:13;100725.19;;;10.37;100.00
46347;BME280;32057;47.830;19.046;2023-09-30T04:58:38;100731.19;;;10.34;100.00
46347;BME280;32057;47.830;19.046;2023-09-30T05:01:04;100727.41;;;10.25;100.00
46347;BME280;32057;47.830;19.046;2023-09-30T05:03:29;100737.03;;;10.27;100.00
46347;BME280;32057;47.830;19.046;2023-09-30T05:05:54;100732.75;;;10.29;100.00
46347;BME280;32057;47.830;19.046;2023-09-30T05:08:22;100738.25;;;10.39;100.00
46347;BME280;32057;47.830;19.046;2023-09-30T05:10:47;100734.84;;;10.41;100.00
46347;BME280;32057;47.830;19.046;2023-09-30T05:13:13;100741.84;;;10.44;100.00
46347;BME280;32057;47.830;19.046;2023-09-30T05:15:39;100744.75;;;10.54;100.00
46347;BME280;32057;47.830;19.046;2023-09-30T05:18:04;100741.72;;;10.71;100.00
46347;BME280;32057;47.830;19.046;2023-09-30T05:20:30;100747.34;;;10.88;100.00
46347;BME280;32057;47.830;19.046;2023-09-30T05:22:55;100742.56;;;11.05;100.00
46347;BME280;32057;47.830;19.046;2023-09-30T05:25:21;100742.94;;;11.20;100.00
46347;BME280;32057;47.830;19.046;2023-09-30T05:27:51;100744.75;;;11.24;100.00
46347;BME280;32057;47.830;19.046;2023-09-30T05:30:16;100747.50;;;11.29;100.00
46347;BME280;32057;47.830;19.046;2023-09-30T05:32:43;100754.75;;;11.42;100.00
46347;BME280;32057;47.830;19.046;2023-09-30T05:35:08;100742.03;;;11.54;100.00
46347;BME280;32057;47.830;19.046;2023-09-30T05:37:39;100736.19;;;11.65;100.00
46347;BME280;32057;47.830;19.046;2023-09-30T05:40:05;100736.41;;;11.75;100.00
46347;BME280;32057;47.830;19.046;2023-09-30T05:42:43;100728.94;;;11.91;100.00
46347;BME280;32057;47.830;19.046;2023-09-30T05:45:09;100729.13;;;11.99;100.00
46347;BME280;32057;47.830;19.046;2023-09-30T05:47:35;100735.38;;;12.07;100.00
46347;BME280;32057;47.830;19.046;2023-09-30T05:50:00;100731.22;;;12.17;100.00
46347;BME280;32057;47.830;19.046;2023-09-30T05:52:30;100733.19;;;12.28;100.00
46347;BME280;32057;47.830;19.046;2023-09-30T05:54:55;100736.75;;;12.33;100.00
46347;BME280;32057;47.830;19.046;2023-09-30T05:57:21;100739.50;;;12.38;100.00
46347;BME280;32057;47.830;19.046;2023-09-30T05:59:48;100749.13;;;12.42;100.00
46347;BME280;32057;47.830;19.046;2023-09-30T06:02:15;100741.41;;;12.48;100.00
46347;BME280;32057;47.830;19.046;2023-09-30T06:04:40;100742.47;;;12.60;100.00
46347;BME280;32057;47.830;19.046;2023-09-30T06:07:06;100744.47;;;12.73;100.00
46347;BME280;32057;47.830;19.046;2023-09-30T06:09:31;100739.47;;;12.85;100.00
46347;BME280;32057;47.830;19.046;2023-09-30T06:11:57;100749.22;;;12.95;100.00
46347;BME280;32057;47.830;19.046;2023-09-30T06:14:22;100745.91;;;13.04;100.00
46347;BME280;32057;47.830;19.046;2023-09-30T06:16:47;100746.81;;;13.08;100.00
46347;BME280;32057;47.830;19.046;2023-09-30T06:19:13;100750.47;;;13.16;100.00
46347;BME280;32057;47.830;19.046;2023-09-30T06:21:38;100760.16;;;13.25;100.00
46347;BME280;32057;47.830;19.046;2023-09-30T06:24:05;100754.22;;;13.32;100.00
46347;BME280;32057;47.830;19.046;2023-09-30T06:26:30;100749.09;;;13.40;100.00
46347;BME280;32057;47.830;19.046;2023-09-30T06:28:56;100750.97;;;13.47;100.00
46347;BME280;32057;47.830;19.046;2023-09-30T06:31:22;100752.78;;;13.51;100.00
46347;BME280;32057;47.830;19.046;2023-09-30T06:33:48;100749.34;;;13.55;100.00
46347;BME280;32057;47.830;19.046;2023-09-30T06:36:14;100752.03;;;13.61;100.00
46347;BME280;32057;47.830;19.046;2023-09-30T06:38:43;100753.88;;;13.67;100.00
46347;BME280;32057;47.830;19.046;2023-09-30T06:41:15;100755.69;;;13.71;100.00
46347;BME280;32057;47.830;19.046;2023-09-30T06:43:41;100762.72;;;13.75;100.00
46347;BME280;32057;47.830;19.046;2023-09-30T06:46:07;100765.38;;;13.80;100.00
46347;BME280;32057;47.830;19.046;2023-09-30T06:48:34;100762.84;;;13.86;100.00
46347;BME280;32057;47.830;19.046;2023-09-30T06:51:00;100755.09;;;13.92;100.00
46347;BME280;32057;47.830;19.046;2023-09-30T06:53:25;100755.13;;;13.95;100.00
46347;BME280;32057;47.830;19.046;2023-09-30T06:55:51;100756.94;;;13.99;100.00
46347;BME280;32057;47.830;19.046;2023-09-30T06:58:19;100757.88;;;14.06;100.00
46347;BME280;32057;47.830;19.046;2023-09-30T07:00:51;100757.13;;;14.14;100.00
46347;BME280;32057;47.830;19.046;2023-09-30T07:03:18;100769.44;;;14.20;100.00
46347;BME280;32057;47.830;19.046;2023-09-30T07:05:45;100762.53;;;14.27;100.00
46347;BME280;32057;47.830;19.046;2023-09-30T07:08:10;100759.13;;;14.34;100.00
46347;BME280;32057;47.830;19.046;2023-09-30T07:10:36;100760.94;;;14.41;100.00
46347;BME280;32057;47.830;19.046;2023-09-30T07:13:02;100760.19;;;14.51;100.00
46347;BME280;32057;47.830;19.046;2023-09-30T07:15:29;100757.69;;;14.61;100.00
46347;BME280;32057;47.830;19.046;2023-09-30T07:17:54;100764.78;;;14.71;100.00
46347;BME280;32057;47.830;19.046;2023-09-30T07:20:19;100767.50;;;14.79;100.00
46347;BME280;32057;47.830;19.046;2023-09-30T07:22:46;100761.44;;;14.87;100.00
46347;BME280;32057;47.830;19.046;2023-09-30T07:25:12;100760.63;;;14.91;100.00
46347;BME280;32057;47.830;19.046;2023-09-30T07:27:40;100759.78;;;14.96;100.00
46347;BME280;32057;47.830;19.046;2023-09-30T07:30:05;100765.09;;;15.02;100.00
46347;BME280;32057;47.830;19.046;2023-09-30T07:32:32;100762.53;;;15.08;100.00
46347;BME280;32057;47.830;19.046;2023-09-30T07:34:57;100768.69;;;15.13;100.00
46347;BME280;32057;47.830;19.046;2023-09-30T07:37:22;100766.09;;;15.18;100.00
46347;BME280;32057;47.830;19.046;2023-09-30T07:39:49;100770.56;;;15.26;100.00
46347;BME280;32057;47.830;19.046;2023-09-30T07:42:15;100775.00;;;15.37;100.00
46347;BME280;32057;47.830;19.046;2023-09-30T07:44:42;100768.94;;;15.45;100.00
46347;BME280;32057;47.830;19.046;2023-09-30T07:47:07;100771.66;;;15.58;100.00
46347;BME280;32057;47.830;19.046;2023-09-30T07:49:34;100776.09;;;15.66;100.00
46347;BME280;32057;47.830;19.046;2023-09-30T07:51:59;100767.47;;;15.78;100.00
46347;BME280;32057;47.830;19.046;2023-09-30T07:54:24;100775.31;;;15.81;100.00
46347;BME280;32057;47.830;19.046;2023-09-30T07:56:50;100771.91;;;15.95;100.00
46347;BME280;32057;47.830;19.046;2023-09-30T07:59:15;100771.97;;;16.04;100.00
46347;BME280;32057;47.830;19.046;2023-09-30T08:01:41;100770.25;;;16.15;100.00
46347;BME280;32057;47.830;19.046;2023-09-30T08:04:07;100778.19;;;16.29;100.00
46347;BME280;32057;47.830;19.046;2023-09-30T08:06:32;100782.63;;;16.38;100.00
46347;BME280;32057;47.830;19.046;2023-09-30T08:08:58;100787.91;;;16.44;100.00
46347;BME280;32057;47.830;19.046;2023-09-30T08:11:24;100781.78;;;16.48;100.00
46347;BME280;32057;47.830;19.046;2023-09-30T08:13:53;100781.78;;;16.57;100.00
46347;BME280;32057;47.830;19.046;2023-09-30T08:16:18;100780.06;;;16.67;100.00
46347;BME280;32057;47.830;19.046;2023-09-30T08:18:44;100786.25;;;16.78;100.00
46347;BME280;32057;47.830;19.046;2023-09-30T08:21:10;100788.91;;;16.89;100.00
46347;BME280;32057;47.830;19.046;2023-09-30T08:23:38;100792.47;;;17.02;100.00
46347;BME280;32057;47.830;19.046;2023-09-30T08:26:05;100788.94;;;17.09;100.00
46347;BME280;32057;47.830;19.046;2023-09-30T08:28:31;100793.31;;;17.19;100.00
46347;BME280;32057;47.830;19.046;2023-09-30T08:31:02;100794.22;;;17.29;100.00
46347;BME280;32057;47.830;19.046;2023-09-30T08:33:28;100796.00;;;17.31;100.00
46347;BME280;32057;47.830;19.046;2023-09-30T08:35:56;100794.22;;;17.30;100.00
46347;BME280;32057;47.830;19.046;2023-09-30T08:38:21;100789.84;;;17.39;100.00
46347;BME280;32057;47.830;19.046;2023-09-30T08:40:49;100788.97;;;17.46;100.00
46347;BME280;32057;47.830;19.046;2023-09-30T08:43:19;100787.19;;;17.54;100.00
46347;BME280;32057;47.830;19.046;2023-09-30T08:45:53;100788.06;;;17.61;100.00
46347;BME280;32057;47.830;19.046;2023-09-30T08:48:20;100779.28;;;17.71;100.00
46347;BME280;32057;47.830;19.046;2023-09-30T08:50:45;100778.41;;;17.70;100.00
46347;BME280;32057;47.830;19.046;2023-09-30T08:53:12;100777.50;;;17.73;100.00
46347;BME280;32057;47.830;19.046;2023-09-30T08:55:41;100774.91;;;17.84;100.00
46347;BME280;32057;47.830;19.046;2023-09-30T08:58:09;100767.00;;;17.91;100.00
46347;BME280;32057;47.830;19.046;2023-09-30T09:00:34;100773.09;;;18.00;100.00
46347;BME280;32057;47.830;19.046;2023-09-30T09:02:59;100773.09;;;18.07;100.00
46347;BME280;32057;47.830;19.046;2023-09-30T09:05:25;100773.06;;;18.14;100.00
46347;BME280;32057;47.830;19.046;2023-09-30T09:07:51;100771.25;;;18.25;100.00
46347;BME280;32057;47.830;19.046;2023-09-30T09:10:16;100774.72;;;18.33;100.00
46347;BME280;32057;47.830;19.046;2023-09-30T09:12:42;100777.34;;;18.36;100.00
46347;BME280;32057;47.830;19.046;2023-09-30T09:15:20;100770.28;;;18.43;100.00
46347;BME280;32057;47.830;19.046;2023-09-30T09:17:46;100775.63;;;18.29;100.00
46347;BME280;32057;47.830;19.046;2023-09-30T09:20:17;100772.97;;;18.32;100.00
46347;BME280;32057;47.830;19.046;2023-09-30T09:22:47;100769.41;;;18.42;100.00
46347;BME280;32057;47.830;19.046;2023-09-30T09:25:12;100768.53;;;18.40;100.00
46347;BME280;32057;47.830;19.046;2023-09-30T09:27:38;100769.47;;;18.30;100.00
46347;BME280;32057;47.830;19.046;2023-09-30T09:30:21;100765.13;;;18.15;100.00
46347;BME280;32057;47.830;19.046;2023-09-30T09:33:03;100751.94;;;18.26;100.00
46347;BME280;32057;47.830;19.046;2023-09-30T09:35:34;100753.63;;;18.35;100.00
46347;BME280;32057;47.830;19.046;2023-09-30T09:38:06;100758.94;;;18.30;100.00
46347;BME280;32057;47.830;19.046;2023-09-30T09:40:36;100761.50;;;18.42;100.00
46347;BME280;32057;47.830;19.046;2023-09-30T09:43:06;100757.06;;;18.49;100.00
46347;BME280;32057;47.830;19.046;2023-09-30T09:45:36;100754.41;;;18.61;100.00
46347;BME280;32057;47.830;19.046;2023-09-30T09:48:03;100750.06;;;18.49;100.00
46347;BME280;32057;47.830;19.046;2023-09-30T09:50:32;100747.28;;;18.71;100.00
46347;BME280;32057;47.830;19.046;2023-09-30T09:52:59;100755.19;;;18.74;100.00
46347;BME280;32057;47.830;19.046;2023-09-30T09:55:26;100761.38;;;18.68;100.00
46347;BME280;32057;47.830;19.046;2023-09-30T09:57:53;100756.91;;;18.78;100.00
46347;BME280;32057;47.830;19.046;2023-09-30T10:00:22;100767.47;;;18.78;100.00
46347;BME280;32057;47.830;19.046;2023-09-30T10:02:49;100760.44;;;18.83;100.00
46347;BME280;32057;47.830;19.046;2023-09-30T10:05:16;100763.97;;;18.79;100.00
46347;BME280;32057;47.830;19.046;2023-09-30T10:07:52;100759.63;;;18.67;100.00
46347;BME280;32057;47.830;19.046;2023-09-30T10:10:20;100757.84;;;18.68;100.00
46347;BME280;32057;47.830;19.046;2023-09-30T10:12:46;100746.56;;;18.47;100.00
46347;BME280;32057;47.830;19.046;2023-09-30T10:18:11;100746.56;;;18.47;100.00
46347;BME280;32057;47.830;19.046;2023-09-30T10:20:38;100738.69;;;18.35;100.00
46347;BME280;32057;47.830;19.046;2023-09-30T10:25:45;100747.44;;;18.49;100.00
46347;BME280;32057;47.830;19.046;2023-09-30T10:36:36;100750.88;;;18.61;100.00
46347;BME280;32057;47.830;19.046;2023-09-30T10:39:10;100750.91;;;18.55;100.00
46347;BME280;32057;47.830;19.046;2023-09-30T10:46:51;100751.75;;;18.60;100.00
46347;BME280;32057;47.830;19.046;2023-09-30T10:51:43;100746.50;;;18.58;100.00
46347;BME280;32057;47.830;19.046;2023-09-30T10:54:09;100743.84;;;18.55;100.00
46347;BME280;32057;47.830;19.046;2023-09-30T10:56:37;100736.91;;;18.46;100.00
46347;BME280;32057;47.830;19.046;2023-09-30T10:59:03;100739.50;;;18.54;100.00
46347;BME280;32057;47.830;19.046;2023-09-30T11:01:35;100732.38;;;18.67;100.00
46347;BME280;32057;47.830;19.046;2023-09-30T11:04:02;100725.28;;;18.75;100.00
46347;BME280;32057;47.830;19.046;2023-09-30T11:06:30;100727.03;;;18.76;100.00
46347;BME280;32057;47.830;19.046;2023-09-30T11:08:57;100724.34;;;18.87;100.00
46347;BME280;32057;47.830;19.046;2023-09-30T11:14:28;100729.63;;;18.90;100.00
46347;BME280;32057;47.830;19.046;2023-09-30T11:17:01;100727.00;;;18.88;100.00
46347;BME280;32057;47.830;19.046;2023-09-30T11:19:47;100734.03;;;18.88;100.00
46347;BME280;32057;47.830;19.046;2023-09-30T11:22:14;100732.31;;;18.85;100.00
46347;BME280;32057;47.830;19.046;2023-09-30T11:24:40;100736.72;;;18.76;100.00
46347;BME280;32057;47.830;19.046;2023-09-30T11:27:06;100737.59;;;18.82;100.00
46347;BME280;32057;47.830;19.046;2023-09-30T11:29:32;100729.66;;;18.82;100.00
46347;BME280;32057;47.830;19.046;2023-09-30T11:31:57;100733.16;;;18.86;100.00
46347;BME280;32057;47.830;19.046;2023-09-30T11:34:36;100738.44;;;18.83;100.00
46347;BME280;32057;47.830;19.046;2023-09-30T11:37:02;100735.84;;;18.81;100.00
46347;BME280;32057;47.830;19.046;2023-09-30T11:39:29;100736.78;;;18.65;100.00
46347;BME280;32057;47.830;19.046;2023-09-30T11:41:55;100735.03;;;18.65;100.00
46347;BME280;32057;47.830;19.046;2023-09-30T11:44:22;100735.91;;;18.63;100.00
46347;BME280;32057;47.830;19.046;2023-09-30T11:52:02;100728.94;;;18.56;100.00
46347;BME280;32057;47.830;19.046;2023-09-30T11:54:32;100724.50;;;18.62;100.00
46347;BME280;32057;47.830;19.046;2023-09-30T11:57:01;100729.78;;;18.65;100.00
46347;BME280;32057;47.830;19.046;2023-09-30T11:59:28;100729.78;;;18.65;100.00
46347;BME280;32057;47.830;19.046;2023-09-30T12:01:54;100728.88;;;18.68;100.00
46347;BME280;32057;47.830;19.046;2023-09-30T12:04:20;100730.56;;;18.75;100.00
46347;BME280;32057;47.830;19.046;2023-09-30T12:06:45;100725.31;;;18.70;100.00
46347;BME280;32057;47.830;19.046;2023-09-30T12:09:15;100730.56;;;18.75;100.00
46347;BME280;32057;47.830;19.046;2023-09-30T12:11:41;100727.91;;;18.83;100.00
46347;BME280;32057;47.830;19.046;2023-09-30T12:14:10;100714.72;;;18.78;100.00
46347;BME280;32057;47.830;19.046;2023-09-30T12:16:35;100715.53;;;18.91;100.00
46347;BME280;32057;47.830;19.046;2023-09-30T12:19:01;100714.66;;;18.94;100.00
46347;BME280;32057;47.830;19.046;2023-09-30T12:21:26;100718.09;;;18.99;100.00
46347;BME280;32057;47.830;19.046;2023-09-30T12:23:52;100719.84;;;19.04;100.00
46347;BME280;32057;47.830;19.046;2023-09-30T12:26:17;100719.78;;;19.12;100.00
46347;BME280;32057;47.830;19.046;2023-09-30T12:28:45;100721.53;;;19.10;100.00
46347;BME280;32057;47.830;19.046;2023-09-30T12:31:11;100723.28;;;19.14;100.00
46347;BME280;32057;47.830;19.046;2023-09-30T12:33:36;100724.94;;;19.23;100.00
46347;BME280;32057;47.830;19.046;2023-09-30T12:36:02;100717.00;;;19.27;100.00
46347;BME280;32057;47.830;19.046;2023-09-30T12:38:27;100707.19;;;19.39;100.00
46347;BME280;32057;47.830;19.046;2023-09-30T12:40:57;100709.78;;;19.45;100.00
46347;BME280;32057;47.830;19.046;2023-09-30T12:43:24;100705.34;;;19.47;100.00
46347;BME280;32057;47.830;19.046;2023-09-30T12:45:50;100709.69;;;19.56;100.00
46347;BME280;32057;47.830;19.046;2023-09-30T12:48:15;100711.41;;;19.58;100.00
46347;BME280;32057;47.830;19.046;2023-09-30T12:50:42;100713.13;;;19.61;100.00
46347;BME280;32057;47.830;19.046;2023-09-30T12:53:07;100705.19;;;19.62;100.00
46347;BME280;32057;47.830;19.046;2023-09-30T12:55:33;100708.75;;;19.60;100.00
46347;BME280;32057;47.830;19.046;2023-09-30T12:57:58;100712.25;;;19.60;100.00